sensor_id;sensor_type;location;lat;lon;timestamp;P1;durP1;ratioP1;P2;durP2;ratioP2
23140;SDS011;11739;54.750;9.124;2022-07-29T00:01:44;2.05;;;1.90;;
23140;SDS011;11739;54.750;9.124;2022-07-29T00:04:10;2.33;;;2.10;;
23140;SDS011;11739;54.750;9.124;2022-07-29T00:06:37;2.92;;;2.08;;
23140;SDS011;11739;54.750;9.124;2022-07-29T00:09:04;1.70;;;1.60;;
23140;SDS011;11739;54.750;9.124;2022-07-29T00:11:31;2.20;;;2.00;;
23140;SDS011;11739;54.750;9.124;2022-07-29T00:13:57;2.15;;;1.92;;
23140;SDS011;11739;54.750;9.124;2022-07-29T00:16:24;2.80;;;2.25;;
23140;SDS011;11739;54.750;9.124;2022-07-29T00:18:51;2.17;;;2.00;;
23140;SDS011;11739;54.750;9.124;2022-07-29T00:21:17;1.98;;;1.88;;
23140;SDS011;11739;54.750;9.124;2022-07-29T00:23:44;4.28;;;2.35;;
23140;SDS011;11739;54.750;9.124;2022-07-29T00:26:10;2.25;;;2.05;;
23140;SDS011;11739;54.750;9.124;2022-07-29T00:28:37;2.50;;;1.90;;
23140;SDS011;11739;54.750;9.124;2022-07-29T00:31:04;2.10;;;1.88;;
23140;SDS011;11739;54.750;9.124;2022-07-29T00:33:30;2.20;;;2.05;;
23140;SDS011;11739;54.750;9.124;2022-07-29T00:35:57;2.17;;;2.08;;
23140;SDS011;11739;54.750;9.124;2022-07-29T00:38:23;2.20;;;2.00;;
23140;SDS011;11739;54.750;9.124;2022-07-29T00:40:50;3.08;;;2.05;;
23140;SDS011;11739;54.750;9.124;2022-07-29T00:43:16;2.60;;;2.40;;
23140;SDS011;11739;54.750;9.124;2022-07-29T00:45:43;2.95;;;2.40;;
23140;SDS011;11739;54.750;9.124;2022-07-29T00:48:10;2.63;;;2.42;;
23140;SDS011;11739;54.750;9.124;2022-07-29T00:50:37;2.88;;;2.33;;
23140;SDS011;11739;54.750;9.124;2022-07-29T00:53:04;3.47;;;2.58;;
23140;SDS011;11739;54.750;9.124;2022-07-29T00:55:32;3.35;;;2.30;;
23140;SDS011;11739;54.750;9.124;2022-07-29T00:57:59;2.95;;;2.15;;
23140;SDS011;11739;54.750;9.124;2022-07-29T01:00:27;1.90;;;1.80;;
23140;SDS011;11739;54.750;9.124;2022-07-29T01:02:54;2.35;;;2.15;;
23140;SDS011;11739;54.750;9.124;2022-07-29T01:05:21;2.58;;;1.90;;
23140;SDS011;11739;54.750;9.124;2022-07-29T01:07:49;2.33;;;2.13;;
23140;SDS011;11739;54.750;9.124;2022-07-29T01:10:18;2.67;;;2.00;;
23140;SDS011;11739;54.750;9.124;2022-07-29T01:12:46;2.40;;;1.90;;
23140;SDS011;11739;54.750;9.124;2022-07-29T01:15:14;2.40;;;1.88;;
23140;SDS011;11739;54.750;9.124;2022-07-29T01:17:46;2.30;;;2.20;;
23140;SDS011;11739;54.750;9.124;2022-07-29T01:23:11;2.30;;;2.10;;
23140;SDS011;11739;54.750;9.124;2022-07-29T01:31:47;2.75;;;2.25;;
23140;SDS011;11739;54.750;9.124;2022-07-29T01:34:37;2.28;;;2.05;;
23140;SDS011;11739;54.750;9.124;2022-07-29T01:37:11;2.00;;;1.90;;
23140;SDS011;11739;54.750;9.124;2022-07-29T01:39:43;2.40;;;2.20;;
23140;SDS011;11739;54.750;9.124;2022-07-29T01:42:14;2.20;;;2.00;;
23140;SDS011;11739;54.750;9.124;2022-07-29T01:45:15;1.90;;;1.80;;
23140;SDS011;11739;54.750;9.124;2022-07-29T01:47:46;3.47;;;2.10;;
23140;SDS011;11739;54.750;9.124;2022-07-29T01:50:38;2.17;;;1.95;;
23140;SDS011;11739;54.750;9.124;2022-07-29T01:53:10;2.25;;;2.05;;
23140;SDS011;11739;54.750;9.124;2022-07-29T01:55:39;2.72;;;2.10;;
23140;SDS011;11739;54.750;9.124;2022-07-29T01:58:07;2.10;;;2.00;;
23140;SDS011;11739;54.750;9.124;2022-07-29T02:00:34;2.30;;;2.13;;
23140;SDS011;11739;54.750;9.124;2022-07-29T02:03:02;2.45;;;2.10;;
23140;SDS011;11739;54.750;9.124;2022-07-29T02:05:31;2.47;;;2.20;;
23140;SDS011;11739;54.750;9.124;2022-07-29T02:07:59;3.22;;;2.08;;
23140;SDS011;11739;54.750;9.124;2022-07-29T02:10:27;3.00;;;2.38;;
23140;SDS011;11739;54.750;9.124;2022-07-29T02:12:54;2.25;;;2.05;;
23140;SDS011;11739;54.750;9.124;2022-07-29T02:15:26;2.72;;;2.10;;
23140;SDS011;11739;54.750;9.124;2022-07-29T02:17:56;1.95;;;1.85;;
23140;SDS011;11739;54.750;9.124;2022-07-29T02:20:25;2.40;;;1.95;;
23140;SDS011;11739;54.750;9.124;2022-07-29T02:22:52;2.38;;;1.70;;
23140;SDS011;11739;54.750;9.124;2022-07-29T02:25:20;1.90;;;1.80;;
23140;SDS011;11739;54.750;9.124;2022-07-29T02:27:47;2.33;;;2.10;;
23140;SDS011;11739;54.750;9.124;2022-07-29T02:30:15;2.75;;;1.90;;
23140;SDS011;11739;54.750;9.124;2022-07-29T02:32:41;1.92;;;1.83;;
23140;SDS011;11739;54.750;9.124;2022-07-29T02:35:12;2.97;;;1.80;;
23140;SDS011;11739;54.750;9.124;2022-07-29T02:37:40;2.05;;;1.88;;
23140;SDS011;11739;54.750;9.124;2022-07-29T02:40:08;2.15;;;2.00;;
23140;SDS011;11739;54.750;9.124;2022-07-29T02:42:37;2.13;;;1.92;;
23140;SDS011;11739;54.750;9.124;2022-07-29T02:45:06;2.15;;;1.90;;
23140;SDS011;11739;54.750;9.124;2022-07-29T02:47:36;2.30;;;2.10;;
23140;SDS011;11739;54.750;9.124;2022-07-29T02:50:12;2.20;;;2.00;;
23140;SDS011;11739;54.750;9.124;2022-07-29T02:52:57;2.53;;;2.20;;
23140;SDS011;11739;54.750;9.124;2022-07-29T02:58:38;2.65;;;2.45;;
23140;SDS011;11739;54.750;9.124;2022-07-29T03:01:11;2.65;;;2.45;;
23140;SDS011;11739;54.750;9.124;2022-07-29T03:03:46;3.85;;;2.78;;
23140;SDS011;11739;54.750;9.124;2022-07-29T03:06:13;3.58;;;3.10;;
23140;SDS011;11739;54.750;9.124;2022-07-29T03:09:01;4.32;;;3.20;;
23140;SDS011;11739;54.750;9.124;2022-07-29T03:11:28;2.85;;;2.60;;
23140;SDS011;11739;54.750;9.124;2022-07-29T03:14:11;3.70;;;2.85;;
23140;SDS011;11739;54.750;9.124;2022-07-29T03:16:39;3.00;;;2.72;;
23140;SDS011;11739;54.750;9.124;2022-07-29T03:19:06;2.92;;;2.60;;
23140;SDS011;11739;54.750;9.124;2022-07-29T03:21:33;2.60;;;2.40;;
23140;SDS011;11739;54.750;9.124;2022-07-29T03:23:59;4.28;;;3.00;;
23140;SDS011;11739;54.750;9.124;2022-07-29T03:26:26;4.38;;;3.40;;
23140;SDS011;11739;54.750;9.124;2022-07-29T03:28:52;3.20;;;2.65;;
23140;SDS011;11739;54.750;9.124;2022-07-29T03:31:20;3.30;;;2.70;;
23140;SDS011;11739;54.750;9.124;2022-07-29T03:33:46;3.97;;;3.65;;
23140;SDS011;11739;54.750;9.124;2022-07-29T03:36:13;3.53;;;3.15;;
23140;SDS011;11739;54.750;9.124;2022-07-29T03:38:39;5.05;;;3.70;;
23140;SDS011;11739;54.750;9.124;2022-07-29T03:41:09;4.20;;;3.67;;
23140;SDS011;11739;54.750;9.124;2022-07-29T03:43:37;4.45;;;3.45;;
23140;SDS011;11739;54.750;9.124;2022-07-29T03:46:15;5.22;;;3.53;;
23140;SDS011;11739;54.750;9.124;2022-07-29T03:48:45;4.25;;;3.85;;
23140;SDS011;11739;54.750;9.124;2022-07-29T03:51:13;5.68;;;3.78;;
23140;SDS011;11739;54.750;9.124;2022-07-29T03:53:39;4.57;;;3.78;;
23140;SDS011;11739;54.750;9.124;2022-07-29T03:56:06;4.22;;;3.83;;
23140;SDS011;11739;54.750;9.124;2022-07-29T03:58:33;4.05;;;3.63;;
23140;SDS011;11739;54.750;9.124;2022-07-29T04:00:59;4.50;;;4.10;;
23140;SDS011;11739;54.750;9.124;2022-07-29T04:03:26;4.30;;;3.47;;
23140;SDS011;11739;54.750;9.124;2022-07-29T04:05:59;4.20;;;3.80;;
23140;SDS011;11739;54.750;9.124;2022-07-29T04:08:27;3.72;;;3.42;;
23140;SDS011;11739;54.750;9.124;2022-07-29T04:10:53;5.38;;;4.50;;
23140;SDS011;11739;54.750;9.124;2022-07-29T04:13:20;4.05;;;3.75;;
23140;SDS011;11739;54.750;9.124;2022-07-29T04:15:46;5.30;;;4.00;;
23140;SDS011;11739;54.750;9.124;2022-07-29T04:18:13;4.05;;;3.65;;
23140;SDS011;11739;54.750;9.124;2022-07-29T04:20:41;4.57;;;4.18;;
23140;SDS011;11739;54.750;9.124;2022-07-29T04:23:24;4.30;;;3.90;;
23140;SDS011;11739;54.750;9.124;2022-07-29T06:27:11;4.88;;;2.50;;
23140;SDS011;11739;54.750;9.124;2022-07-29T06:29:38;3.00;;;2.70;;
23140;SDS011;11739;54.750;9.124;2022-07-29T06:32:05;2.58;;;2.38;;
23140;SDS011;11739;54.750;9.124;2022-07-29T06:34:32;9.30;;;2.63;;
23140;SDS011;11739;54.750;9.124;2022-07-29T06:36:58;3.60;;;2.17;;
23140;SDS011;11739;54.750;9.124;2022-07-29T06:39:25;3.53;;;2.20;;
23140;SDS011;11739;54.750;9.124;2022-07-29T06:41:51;3.30;;;2.15;;
23140;SDS011;11739;54.750;9.124;2022-07-29T06:44:18;3.45;;;2.40;;
23140;SDS011;11739;54.750;9.124;2022-07-29T06:46:45;5.22;;;2.53;;
23140;SDS011;11739;54.750;9.124;2022-07-29T06:49:15;3.78;;;2.60;;
23140;SDS011;11739;54.750;9.124;2022-07-29T06:51:42;4.72;;;2.78;;
23140;SDS011;11739;54.750;9.124;2022-07-29T06:54:08;4.63;;;2.58;;
23140;SDS011;11739;54.750;9.124;2022-07-29T06:56:35;4.20;;;2.80;;
23140;SDS011;11739;54.750;9.124;2022-07-29T06:59:09;5.65;;;2.67;;
23140;SDS011;11739;54.750;9.124;2022-07-29T07:01:37;3.33;;;2.58;;
23140;SDS011;11739;54.750;9.124;2022-07-29T07:04:08;3.88;;;2.35;;
23140;SDS011;11739;54.750;9.124;2022-07-29T07:06:35;4.43;;;2.35;;
23140;SDS011;11739;54.750;9.124;2022-07-29T07:09:01;2.85;;;1.98;;
23140;SDS011;11739;54.750;9.124;2022-07-29T07:11:28;5.25;;;2.17;;
23140;SDS011;11739;54.750;9.124;2022-07-29T07:13:54;3.92;;;2.00;;
23140;SDS011;11739;54.750;9.124;2022-07-29T07:16:28;2.10;;;1.90;;
23140;SDS011;11739;54.750;9.124;2022-07-29T07:18:55;2.85;;;1.98;;
23140;SDS011;11739;54.750;9.124;2022-07-29T07:21:21;3.13;;;2.00;;
23140;SDS011;11739;54.750;9.124;2022-07-29T07:23:48;5.70;;;2.20;;
23140;SDS011;11739;54.750;9.124;2022-07-29T07:26:14;2.38;;;1.60;;
23140;SDS011;11739;54.750;9.124;2022-07-29T07:28:41;3.15;;;2.08;;
23140;SDS011;11739;54.750;9.124;2022-07-29T07:31:07;3.97;;;2.08;;
23140;SDS011;11739;54.750;9.124;2022-07-29T07:33:35;4.50;;;2.10;;
23140;SDS011;11739;54.750;9.124;2022-07-29T07:36:02;4.22;;;1.98;;
23140;SDS011;11739;54.750;9.124;2022-07-29T07:38:28;3.40;;;2.20;;
23140;SDS011;11739;54.750;9.124;2022-07-29T07:40:55;3.35;;;1.90;;
23140;SDS011;11739;54.750;9.124;2022-07-29T07:43:22;4.53;;;2.10;;
23140;SDS011;11739;54.750;9.124;2022-07-29T07:45:48;4.28;;;1.90;;
23140;SDS011;11739;54.750;9.124;2022-07-29T07:48:15;5.40;;;2.03;;
23140;SDS011;11739;54.750;9.124;2022-07-29T07:50:41;2.80;;;2.05;;
23140;SDS011;11739;54.750;9.124;2022-07-29T07:53:09;5.20;;;2.10;;
23140;SDS011;11739;54.750;9.124;2022-07-29T07:55:40;5.28;;;1.90;;
23140;SDS011;11739;54.750;9.124;2022-07-29T07:58:27;6.68;;;2.28;;
23140;SDS011;11739;54.750;9.124;2022-07-29T08:00:57;3.45;;;2.08;;
23140;SDS011;11739;54.750;9.124;2022-07-29T08:03:23;4.55;;;2.38;;
23140;SDS011;11739;54.750;9.124;2022-07-29T08:05:50;3.75;;;2.00;;
23140;SDS011;11739;54.750;9.124;2022-07-29T08:08:18;3.03;;;1.80;;
23140;SDS011;11739;54.750;9.124;2022-07-29T08:10:44;2.17;;;1.67;;
23140;SDS011;11739;54.750;9.124;2022-07-29T08:13:23;4.40;;;2.03;;
23140;SDS011;11739;54.750;9.124;2022-07-29T08:15:51;3.08;;;1.80;;
23140;SDS011;11739;54.750;9.124;2022-07-29T08:18:25;3.45;;;1.73;;
23140;SDS011;11739;54.750;9.124;2022-07-29T08:20:53;4.10;;;1.95;;
23140;SDS011;11739;54.750;9.124;2022-07-29T08:23:20;2.97;;;1.75;;
23140;SDS011;11739;54.750;9.124;2022-07-29T08:25:46;2.85;;;1.77;;
23140;SDS011;11739;54.750;9.124;2022-07-29T08:28:15;4.45;;;1.90;;
23140;SDS011;11739;54.750;9.124;2022-07-29T08:30:42;6.03;;;2.20;;
23140;SDS011;11739;54.750;9.124;2022-07-29T08:33:09;4.95;;;1.88;;
23140;SDS011;11739;54.750;9.124;2022-07-29T08:35:35;5.47;;;1.90;;
23140;SDS011;11739;54.750;9.124;2022-07-29T08:38:02;4.30;;;1.73;;
23140;SDS011;11739;54.750;9.124;2022-07-29T08:40:29;4.00;;;1.58;;
23140;SDS011;11739;54.750;9.124;2022-07-29T08:42:57;4.18;;;1.83;;
23140;SDS011;11739;54.750;9.124;2022-07-29T08:45:25;3.75;;;1.75;;
23140;SDS011;11739;54.750;9.124;2022-07-29T08:47:53;3.15;;;1.70;;
23140;SDS011;11739;54.750;9.124;2022-07-29T08:50:19;11.02;;;2.00;;
23140;SDS011;11739;54.750;9.124;2022-07-29T08:52:46;2.20;;;1.70;;
23140;SDS011;11739;54.750;9.124;2022-07-29T08:55:14;6.40;;;1.75;;
23140;SDS011;11739;54.750;9.124;2022-07-29T08:57:46;3.28;;;1.63;;
23140;SDS011;11739;54.750;9.124;2022-07-29T09:00:19;7.55;;;1.40;;
23140;SDS011;11739;54.750;9.124;2022-07-29T09:02:48;3.75;;;1.95;;
23140;SDS011;11739;54.750;9.124;2022-07-29T09:05:18;3.28;;;1.60;;
23140;SDS011;11739;54.750;9.124;2022-07-29T09:07:45;2.85;;;1.75;;
23140;SDS011;11739;54.750;9.124;2022-07-29T09:10:14;2.78;;;1.40;;
23140;SDS011;11739;54.750;9.124;2022-07-29T09:12:41;2.90;;;1.50;;
23140;SDS011;11739;54.750;9.124;2022-07-29T09:15:07;2.33;;;1.65;;
23140;SDS011;11739;54.750;9.124;2022-07-29T09:17:41;2.45;;;1.60;;
23140;SDS011;11739;54.750;9.124;2022-07-29T09:20:12;4.30;;;1.80;;
23140;SDS011;11739;54.750;9.124;2022-07-29T09:22:40;3.15;;;1.70;;
23140;SDS011;11739;54.750;9.124;2022-07-29T09:25:07;3.53;;;1.65;;
23140;SDS011;11739;54.750;9.124;2022-07-29T09:27:34;3.38;;;1.80;;
23140;SDS011;11739;54.750;9.124;2022-07-29T09:30:06;4.80;;;1.75;;
23140;SDS011;11739;54.750;9.124;2022-07-29T09:32:33;3.00;;;1.75;;
23140;SDS011;11739;54.750;9.124;2022-07-29T09:35:21;3.80;;;1.67;;
23140;SDS011;11739;54.750;9.124;2022-07-29T09:37:50;2.45;;;1.48;;
23140;SDS011;11739;54.750;9.124;2022-07-29T09:40:21;4.35;;;1.60;;
23140;SDS011;11739;54.750;9.124;2022-07-29T09:42:50;4.03;;;1.50;;
23140;SDS011;11739;54.750;9.124;2022-07-29T09:45:30;1.80;;;1.50;;
23140;SDS011;11739;54.750;9.124;2022-07-29T09:47:58;3.90;;;1.77;;
23140;SDS011;11739;54.750;9.124;2022-07-29T09:50:36;2.33;;;1.70;;
23140;SDS011;11739;54.750;9.124;2022-07-29T09:53:03;2.72;;;1.75;;
23140;SDS011;11739;54.750;9.124;2022-07-29T09:55:30;4.82;;;1.45;;
23140;SDS011;11739;54.750;9.124;2022-07-29T10:00:46;3.50;;;1.48;;
23140;SDS011;11739;54.750;9.124;2022-07-29T10:03:15;5.10;;;2.22;;
23140;SDS011;11739;54.750;9.124;2022-07-29T10:05:42;2.85;;;1.52;;
23140;SDS011;11739;54.750;9.124;2022-07-29T10:08:09;3.20;;;1.63;;
23140;SDS011;11739;54.750;9.124;2022-07-29T10:10:39;4.82;;;1.90;;
23140;SDS011;11739;54.750;9.124;2022-07-29T10:13:14;2.78;;;1.70;;
23140;SDS011;11739;54.750;9.124;2022-07-29T10:15:42;3.55;;;1.50;;
23140;SDS011;11739;54.750;9.124;2022-07-29T10:18:12;2.33;;;1.48;;
23140;SDS011;11739;54.750;9.124;2022-07-29T10:20:39;4.25;;;1.70;;
23140;SDS011;11739;54.750;9.124;2022-07-29T10:23:06;2.30;;;1.77;;
23140;SDS011;11739;54.750;9.124;2022-07-29T10:25:33;2.50;;;1.67;;
23140;SDS011;11739;54.750;9.124;2022-07-29T10:27:59;6.13;;;1.90;;
23140;SDS011;11739;54.750;9.124;2022-07-29T10:30:26;4.05;;;1.73;;
23140;SDS011;11739;54.750;9.124;2022-07-29T10:32:54;2.75;;;1.67;;
23140;SDS011;11739;54.750;9.124;2022-07-29T10:38:34;2.45;;;1.75;;
23140;SDS011;11739;54.750;9.124;2022-07-29T10:41:24;3.85;;;1.73;;
23140;SDS011;11739;54.750;9.124;2022-07-29T10:44:18;2.28;;;1.60;;
23140;SDS011;11739;54.750;9.124;2022-07-29T10:46:49;5.13;;;2.17;;
23140;SDS011;11739;54.750;9.124;2022-07-29T10:49:17;2.35;;;1.73;;
23140;SDS011;11739;54.750;9.124;2022-07-29T10:51:54;2.72;;;2.00;;
23140;SDS011;11739;54.750;9.124;2022-07-29T10:57:12;3.28;;;1.75;;
23140;SDS011;11739;54.750;9.124;2022-07-29T11:03:00;2.65;;;1.50;;
23140;SDS011;11739;54.750;9.124;2022-07-29T11:05:54;3.40;;;1.70;;
23140;SDS011;11739;54.750;9.124;2022-07-29T11:08:25;3.63;;;1.90;;
23140;SDS011;11739;54.750;9.124;2022-07-29T11:11:30;3.60;;;1.63;;
23140;SDS011;11739;54.750;9.124;2022-07-29T11:13:47;5.72;;;1.95;;
23140;SDS011;11739;54.750;9.124;2022-07-29T11:16:19;4.40;;;1.83;;
23140;SDS011;11739;54.750;9.124;2022-07-29T11:21:40;3.55;;;1.40;;
23140;SDS011;11739;54.750;9.124;2022-07-29T11:24:22;4.93;;;1.60;;
23140;SDS011;11739;54.750;9.124;2022-07-29T11:32:50;2.83;;;1.85;;
23140;SDS011;11739;54.750;9.124;2022-07-29T11:35:19;3.28;;;1.70;;
23140;SDS011;11739;54.750;9.124;2022-07-29T11:41:34;1.70;;;1.60;;
23140;SDS011;11739;54.750;9.124;2022-07-29T11:44:01;3.28;;;1.77;;
23140;SDS011;11739;54.750;9.124;2022-07-29T11:46:47;3.97;;;2.10;;
23140;SDS011;11739;54.750;9.124;2022-07-29T11:49:20;3.00;;;2.20;;
23140;SDS011;11739;54.750;9.124;2022-07-29T11:51:58;2.38;;;1.80;;
23140;SDS011;11739;54.750;9.124;2022-07-29T11:54:32;2.33;;;1.95;;
23140;SDS011;11739;54.750;9.124;2022-07-29T11:57:20;3.42;;;2.20;;
23140;SDS011;11739;54.750;9.124;2022-07-29T11:59:47;4.78;;;2.28;;
23140;SDS011;11739;54.750;9.124;2022-07-29T12:02:14;3.20;;;2.28;;
23140;SDS011;11739;54.750;9.124;2022-07-29T12:05:02;4.47;;;1.90;;
23140;SDS011;11739;54.750;9.124;2022-07-29T12:07:36;2.40;;;1.95;;
23140;SDS011;11739;54.750;9.124;2022-07-29T12:10:04;6.43;;;2.35;;
23140;SDS011;11739;54.750;9.124;2022-07-29T12:12:36;4.82;;;2.15;;
23140;SDS011;11739;54.750;9.124;2022-07-29T12:15:11;2.65;;;2.03;;
23140;SDS011;11739;54.750;9.124;2022-07-29T12:17:40;5.13;;;1.70;;
23140;SDS011;11739;54.750;9.124;2022-07-29T12:20:07;4.32;;;1.90;;
23140;SDS011;11739;54.750;9.124;2022-07-29T12:22:34;3.58;;;2.08;;
23140;SDS011;11739;54.750;9.124;2022-07-29T12:25:09;4.05;;;1.80;;
23140;SDS011;11739;54.750;9.124;2022-07-29T12:28:02;3.20;;;1.90;;
23140;SDS011;11739;54.750;9.124;2022-07-29T12:30:34;4.03;;;2.00;;
23140;SDS011;11739;54.750;9.124;2022-07-29T12:33:22;4.97;;;2.00;;
23140;SDS011;11739;54.750;9.124;2022-07-29T12:38:33;3.47;;;1.70;;
23140;SDS011;11739;54.750;9.124;2022-07-29T12:41:00;4.38;;;2.17;;
23140;SDS011;11739;54.750;9.124;2022-07-29T12:43:29;3.17;;;2.05;;
23140;SDS011;11739;54.750;9.124;2022-07-29T12:45:56;4.18;;;1.92;;
23140;SDS011;11739;54.750;9.124;2022-07-29T12:48:35;3.20;;;1.80;;
23140;SDS011;11739;54.750;9.124;2022-07-29T12:51:03;2.80;;;1.70;;
23140;SDS011;11739;54.750;9.124;2022-07-29T12:53:32;4.18;;;2.10;;
23140;SDS011;11739;54.750;9.124;2022-07-29T12:56:01;6.55;;;2.10;;
23140;SDS011;11739;54.750;9.124;2022-07-29T12:58:50;3.17;;;1.70;;
23140;SDS011;11739;54.750;9.124;2022-07-29T13:01:18;2.60;;;1.65;;
23140;SDS011;11739;54.750;9.124;2022-07-29T13:06:33;5.25;;;1.60;;
23140;SDS011;11739;54.750;9.124;2022-07-29T13:11:47;4.00;;;1.73;;
23140;SDS011;11739;54.750;9.124;2022-07-29T13:14:34;2.80;;;1.80;;
23140;SDS011;11739;54.750;9.124;2022-07-29T13:17:19;5.43;;;2.05;;
23140;SDS011;11739;54.750;9.124;2022-07-29T13:19:52;5.90;;;2.10;;
23140;SDS011;11739;54.750;9.124;2022-07-29T13:22:34;5.05;;;2.00;;
23140;SDS011;11739;54.750;9.124;2022-07-29T13:25:01;4.15;;;1.52;;
23140;SDS011;11739;54.750;9.124;2022-07-29T13:27:29;3.33;;;1.45;;
23140;SDS011;11739;54.750;9.124;2022-07-29T13:29:58;1.73;;;1.40;;
23140;SDS011;11739;54.750;9.124;2022-07-29T13:32:26;2.63;;;1.48;;
23140;SDS011;11739;54.750;9.124;2022-07-29T13:34:55;3.42;;;1.60;;
23140;SDS011;11739;54.750;9.124;2022-07-29T13:37:22;2.85;;;1.50;;
23140;SDS011;11739;54.750;9.124;2022-07-29T13:39:48;2.75;;;1.55;;
23140;SDS011;11739;54.750;9.124;2022-07-29T13:42:18;6.05;;;1.63;;
23140;SDS011;11739;54.750;9.124;2022-07-29T13:44:45;3.22;;;1.63;;
23140;SDS011;11739;54.750;9.124;2022-07-29T13:47:12;4.07;;;1.73;;
23140;SDS011;11739;54.750;9.124;2022-07-29T13:49:39;3.13;;;1.38;;
23140;SDS011;11739;54.750;9.124;2022-07-29T13:52:05;4.78;;;1.88;;
23140;SDS011;11739;54.750;9.124;2022-07-29T13:54:33;3.38;;;1.45;;
23140;SDS011;11739;54.750;9.124;2022-07-29T13:57:08;6.60;;;1.80;;
23140;SDS011;11739;54.750;9.124;2022-07-29T13:59:35;3.33;;;1.60;;
23140;SDS011;11739;54.750;9.124;2022-07-29T14:02:02;2.47;;;1.65;;
23140;SDS011;11739;54.750;9.124;2022-07-29T14:04:28;5.13;;;1.83;;
23140;SDS011;11739;54.750;9.124;2022-07-29T14:06:55;4.18;;;1.60;;
23140;SDS011;11739;54.750;9.124;2022-07-29T14:09:23;4.07;;;2.05;;
23140;SDS011;11739;54.750;9.124;2022-07-29T14:11:49;3.72;;;1.73;;
23140;SDS011;11739;54.750;9.124;2022-07-29T14:14:17;3.47;;;1.85;;
23140;SDS011;11739;54.750;9.124;2022-07-29T14:16:44;4.20;;;1.80;;
23140;SDS011;11739;54.750;9.124;2022-07-29T14:19:17;2.40;;;1.70;;
23140;SDS011;11739;54.750;9.124;2022-07-29T14:21:44;2.65;;;1.55;;
23140;SDS011;11739;54.750;9.124;2022-07-29T14:24:11;4.35;;;1.70;;
23140;SDS011;11739;54.750;9.124;2022-07-29T14:26:47;2.25;;;1.42;;
23140;SDS011;11739;54.750;9.124;2022-07-29T14:29:13;2.08;;;1.60;;
23140;SDS011;11739;54.750;9.124;2022-07-29T14:31:40;4.65;;;1.55;;
23140;SDS011;11739;54.750;9.124;2022-07-29T14:34:08;2.65;;;1.40;;
23140;SDS011;11739;54.750;9.124;2022-07-29T14:36:35;2.50;;;1.60;;
23140;SDS011;11739;54.750;9.124;2022-07-29T14:39:01;5.85;;;1.80;;
23140;SDS011;11739;54.750;9.124;2022-07-29T14:41:28;2.85;;;1.63;;
23140;SDS011;11739;54.750;9.124;2022-07-29T14:43:54;3.70;;;1.60;;
23140;SDS011;11739;54.750;9.124;2022-07-29T14:46:21;5.03;;;1.80;;
23140;SDS011;11739;54.750;9.124;2022-07-29T14:48:47;4.07;;;1.63;;
23140;SDS011;11739;54.750;9.124;2022-07-29T14:51:14;5.22;;;1.67;;
23140;SDS011;11739;54.750;9.124;2022-07-29T14:53:41;5.25;;;1.60;;
23140;SDS011;11739;54.750;9.124;2022-07-29T14:56:07;2.63;;;1.60;;
23140;SDS011;11739;54.750;9.124;2022-07-29T14:58:54;3.67;;;1.60;;
23140;SDS011;11739;54.750;9.124;2022-07-29T15:01:20;4.50;;;1.88;;
23140;SDS011;11739;54.750;9.124;2022-07-29T15:03:47;2.65;;;1.60;;
23140;SDS011;11739;54.750;9.124;2022-07-29T15:06:13;4.50;;;1.60;;
23140;SDS011;11739;54.750;9.124;2022-07-29T15:08:40;2.58;;;1.60;;
23140;SDS011;11739;54.750;9.124;2022-07-29T15:11:06;4.47;;;1.35;;
23140;SDS011;11739;54.750;9.124;2022-07-29T15:13:44;4.25;;;1.70;;
23140;SDS011;11739;54.750;9.124;2022-07-29T15:16:28;4.35;;;1.73;;
23140;SDS011;11739;54.750;9.124;2022-07-29T15:18:54;4.07;;;1.65;;
23140;SDS011;11739;54.750;9.124;2022-07-29T15:21:26;4.68;;;1.58;;
23140;SDS011;11739;54.750;9.124;2022-07-29T15:23:52;2.75;;;1.63;;
23140;SDS011;11739;54.750;9.124;2022-07-29T15:26:19;2.17;;;1.60;;
23140;SDS011;11739;54.750;9.124;2022-07-29T15:28:46;3.20;;;1.80;;
23140;SDS011;11739;54.750;9.124;2022-07-29T15:31:12;4.90;;;1.65;;
23140;SDS011;11739;54.750;9.124;2022-07-29T15:33:39;2.78;;;1.70;;
23140;SDS011;11739;54.750;9.124;2022-07-29T15:36:05;2.40;;;1.50;;
23140;SDS011;11739;54.750;9.124;2022-07-29T15:38:32;3.20;;;1.55;;
23140;SDS011;11739;54.750;9.124;2022-07-29T15:40:59;3.67;;;1.40;;
23140;SDS011;11739;54.750;9.124;2022-07-29T15:43:25;2.88;;;1.50;;
23140;SDS011;11739;54.750;9.124;2022-07-29T15:45:52;4.88;;;1.48;;
23140;SDS011;11739;54.750;9.124;2022-07-29T15:48:38;3.90;;;1.80;;
23140;SDS011;11739;54.750;9.124;2022-07-29T15:51:05;5.40;;;1.55;;
23140;SDS011;11739;54.750;9.124;2022-07-29T15:53:31;3.30;;;1.23;;
23140;SDS011;11739;54.750;9.124;2022-07-29T15:56:00;3.17;;;1.40;;
23140;SDS011;11739;54.750;9.124;2022-07-29T15:58:27;2.05;;;1.30;;
23140;SDS011;11739;54.750;9.124;2022-07-29T16:00:53;2.30;;;1.40;;
23140;SDS011;11739;54.750;9.124;2022-07-29T16:03:20;2.58;;;1.40;;
23140;SDS011;11739;54.750;9.124;2022-07-29T16:05:47;4.25;;;1.42;;
23140;SDS011;11739;54.750;9.124;2022-07-29T16:08:14;4.03;;;1.30;;
23140;SDS011;11739;54.750;9.124;2022-07-29T16:10:40;2.25;;;1.55;;
23140;SDS011;11739;54.750;9.124;2022-07-29T16:13:07;2.40;;;1.20;;
23140;SDS011;11739;54.750;9.124;2022-07-29T16:15:33;5.07;;;1.58;;
23140;SDS011;11739;54.750;9.124;2022-07-29T16:18:00;2.28;;;1.50;;
23140;SDS011;11739;54.750;9.124;2022-07-29T16:20:28;2.10;;;1.30;;
23140;SDS011;11739;54.750;9.124;2022-07-29T16:22:55;4.20;;;1.55;;
23140;SDS011;11739;54.750;9.124;2022-07-29T16:25:21;2.75;;;1.30;;
23140;SDS011;11739;54.750;9.124;2022-07-29T16:28:08;2.08;;;1.40;;
23140;SDS011;11739;54.750;9.124;2022-07-29T16:30:35;2.15;;;1.48;;
23140;SDS011;11739;54.750;9.124;2022-07-29T16:33:02;3.95;;;1.52;;
23140;SDS011;11739;54.750;9.124;2022-07-29T16:35:33;1.85;;;1.40;;
23140;SDS011;11739;54.750;9.124;2022-07-29T16:38:05;2.97;;;1.35;;
23140;SDS011;11739;54.750;9.124;2022-07-29T16:40:31;1.70;;;1.33;;
23140;SDS011;11739;54.750;9.124;2022-07-29T16:42:58;4.60;;;1.42;;
23140;SDS011;11739;54.750;9.124;2022-07-29T16:45:25;3.85;;;1.50;;
23140;SDS011;11739;54.750;9.124;2022-07-29T16:47:56;4.07;;;1.50;;
23140;SDS011;11739;54.750;9.124;2022-07-29T16:50:26;3.50;;;1.50;;
23140;SDS011;11739;54.750;9.124;2022-07-29T16:52:54;2.20;;;1.20;;
23140;SDS011;11739;54.750;9.124;2022-07-29T16:55:20;2.72;;;1.50;;
23140;SDS011;11739;54.750;9.124;2022-07-29T16:57:47;3.33;;;1.58;;
23140;SDS011;11739;54.750;9.124;2022-07-29T17:00:14;2.67;;;1.65;;
23140;SDS011;11739;54.750;9.124;2022-07-29T17:02:42;1.83;;;1.30;;
23140;SDS011;11739;54.750;9.124;2022-07-29T17:05:09;2.65;;;1.70;;
23140;SDS011;11739;54.750;9.124;2022-07-29T17:07:35;2.63;;;1.40;;
23140;SDS011;11739;54.750;9.124;2022-07-29T17:10:02;4.05;;;1.73;;
23140;SDS011;11739;54.750;9.124;2022-07-29T17:12:36;2.20;;;1.52;;
23140;SDS011;11739;54.750;9.124;2022-07-29T17:15:04;3.95;;;1.58;;
23140;SDS011;11739;54.750;9.124;2022-07-29T17:17:32;4.20;;;1.50;;
23140;SDS011;11739;54.750;9.124;2022-07-29T17:20:12;4.20;;;1.80;;
23140;SDS011;11739;54.750;9.124;2022-07-29T17:22:42;1.77;;;1.55;;
23140;SDS011;11739;54.750;9.124;2022-07-29T17:25:09;5.00;;;1.58;;
23140;SDS011;11739;54.750;9.124;2022-07-29T17:27:45;2.33;;;1.42;;
23140;SDS011;11739;54.750;9.124;2022-07-29T17:30:12;4.35;;;2.03;;
23140;SDS011;11739;54.750;9.124;2022-07-29T17:32:38;5.50;;;1.60;;
23140;SDS011;11739;54.750;9.124;2022-07-29T17:35:05;4.25;;;1.90;;
23140;SDS011;11739;54.750;9.124;2022-07-29T17:37:51;4.57;;;1.90;;
23140;SDS011;11739;54.750;9.124;2022-07-29T17:40:17;4.10;;;1.92;;
23140;SDS011;11739;54.750;9.124;2022-07-29T17:42:44;2.28;;;1.45;;
23140;SDS011;11739;54.750;9.124;2022-07-29T17:45:10;4.32;;;2.00;;
23140;SDS011;11739;54.750;9.124;2022-07-29T17:47:37;3.97;;;1.65;;
23140;SDS011;11739;54.750;9.124;2022-07-29T17:50:04;5.00;;;1.67;;